createdAt,value
2022-12-01T00:00:39.697Z,5.59
2022-12-01T00:01:40.983Z,5.56
2022-12-01T00:02:40.395Z,5.59
2022-12-01T00:03:43.601Z,5.60
2022-12-01T00:04:39.852Z,5.60
2022-12-01T00:05:42.203Z,5.60
2022-12-01T00:06:41.465Z,5.60
2022-12-01T00:07:39.683Z,5.63
2022-12-01T00:08:54.462Z,5.63
2022-12-01T00:09:40.221Z,5.65
2022-12-01T00:10:39.488Z,5.63
2022-12-01T00:11:41.822Z,5.62
2022-12-01T00:12:41.092Z,5.63
2022-12-01T00:13:39.337Z,5.60
2022-12-01T00:14:40.650Z,5.59
2022-12-01T00:15:54.472Z,5.58
2022-12-01T00:16:39.227Z,5.56
2022-12-01T00:17:40.532Z,5.58
2022-12-01T00:18:40.830Z,5.56
2022-12-01T00:19:39.124Z,5.58
2022-12-01T00:20:41.588Z,5.56
2022-12-01T00:21:41.775Z,5.55
2022-12-01T00:22:38.931Z,5.55
2022-12-01T00:23:39.234Z,5.55
2022-12-01T00:24:39.557Z,5.56
2022-12-01T00:26:06.346Z,5.49
2022-12-01T00:26:40.139Z,5.58
2022-12-01T00:27:39.361Z,5.56
2022-12-01T00:28:39.167Z,5.55
2022-12-01T00:29:39.492Z,5.55
2022-12-01T00:30:54.362Z,5.52
2022-12-01T00:31:39.221Z,5.55
2022-12-01T00:32:39.393Z,5.52
2022-12-01T00:33:54.236Z,5.49
2022-12-01T00:34:39.999Z,5.52
2022-12-01T00:35:38.906Z,5.52
2022-12-01T00:36:39.277Z,5.56
2022-12-01T00:37:39.517Z,5.56
2022-12-01T00:38:39.819Z,5.56
2022-12-01T00:39:39.082Z,5.55
2022-12-01T00:40:53.987Z,5.55
2022-12-01T00:41:40.836Z,5.55
2022-12-01T00:42:38.971Z,5.52
2022-12-01T00:43:39.273Z,5.51
2022-12-01T00:44:54.136Z,5.51
2022-12-01T00:45:40.997Z,5.51
2022-12-01T00:46:39.942Z,5.51
2022-12-01T00:47:54.140Z,5.52
2022-12-01T00:48:39.798Z,5.55
2022-12-01T00:49:39.087Z,5.47
2022-12-01T00:50:53.946Z,5.52
2022-12-01T00:51:39.692Z,5.47
2022-12-01T00:52:38.962Z,5.44
2022-12-01T00:53:39.352Z,5.45
2022-12-01T00:54:38.532Z,5.45
2022-12-01T00:55:38.857Z,5.45
2022-12-01T00:56:53.752Z,5.45
2022-12-01T00:57:40.507Z,5.47
2022-12-01T00:58:38.767Z,5.45
2022-12-01T00:59:53.607Z,5.45
2022-12-01T01:00:40.391Z,5.48
2022-12-01T01:01:38.726Z,5.45
2022-12-01T01:02:40.053Z,5.47
2022-12-01T01:03:40.352Z,5.44
2022-12-01T01:04:41.647Z,5.44
2022-12-01T01:05:38.827Z,5.44
2022-12-01T01:06:42.267Z,5.45
2022-12-01T01:07:38.450Z,5.42
2022-12-01T01:08:39.759Z,5.44
2022-12-01T01:09:39.211Z,5.44
2022-12-01T01:10:38.312Z,5.42
2022-12-01T01:11:39.662Z,5.42
2022-12-01T01:12:42.067Z,5.41
2022-12-01T01:13:42.302Z,5.44
2022-12-01T01:14:38.552Z,5.44
2022-12-01T01:15:42.481Z,5.44
2022-12-01T01:16:53.948Z,5.42
2022-12-01T01:17:40.534Z,5.40
2022-12-01T01:18:38.797Z,5.42
2022-12-01T01:19:40.116Z,5.42
2022-12-01T01:20:38.340Z,5.41
2022-12-01T01:21:40.778Z,5.40
2022-12-01T01:22:53.560Z,5.42
2022-12-01T01:23:40.344Z,5.42
2022-12-01T01:24:38.571Z,5.42
2022-12-01T01:25:46.146Z,5.40
2022-12-01T01:26:39.176Z,5.45
2022-12-01T01:27:38.546Z,5.47
2022-12-01T01:28:46.046Z,5.44
2022-12-01T01:29:45.351Z,5.44
2022-12-01T01:30:40.422Z,5.45
2022-12-01T01:31:39.646Z,5.41
2022-12-01T01:32:40.022Z,5.44
2022-12-01T01:33:41.299Z,5.44
2022-12-01T01:34:39.517Z,5.42
2022-12-01T01:35:38.788Z,5.42
2022-12-01T01:36:39.858Z,5.44
2022-12-01T01:37:38.038Z,5.44
2022-12-01T01:38:52.991Z,5.44
2022-12-01T01:39:39.717Z,5.44
2022-12-01T01:40:37.967Z,5.44
2022-12-01T01:41:45.568Z,5.44
2022-12-01T01:42:40.700Z,5.44
2022-12-01T01:43:37.876Z,5.45
2022-12-01T01:44:40.133Z,5.45
2022-12-01T01:45:38.201Z,5.44
2022-12-01T01:46:53.067Z,5.44
2022-12-01T01:47:39.812Z,5.42
2022-12-01T01:48:38.027Z,5.44
2022-12-01T01:49:38.338Z,5.41
2022-12-01T01:50:40.817Z,5.42
2022-12-01T01:51:37.918Z,5.42
2022-12-01T01:52:41.357Z,5.45
2022-12-01T01:53:38.547Z,5.45
2022-12-01T01:54:41.871Z,5.48
2022-12-01T01:55:52.808Z,5.47
2022-12-01T01:56:38.412Z,5.47
2022-12-01T01:57:38.726Z,5.48
2022-12-01T01:58:37.988Z,5.47
2022-12-01T01:59:38.289Z,5.48
2022-12-01T02:00:39.557Z,5.48
2022-12-01T02:01:38.028Z,5.48
2022-12-01T02:02:38.243Z,5.49
2022-12-01T02:03:38.521Z,5.47
2022-12-01T02:04:37.806Z,5.49
2022-12-01T02:05:38.097Z,5.48
2022-12-01T02:06:38.584Z,5.48
2022-12-01T02:07:37.779Z,5.47
2022-12-01T02:08:38.076Z,5.47
2022-12-01T02:09:38.416Z,5.48
2022-12-01T02:10:37.697Z,5.45
2022-12-01T02:11:37.997Z,5.45
2022-12-01T02:12:38.707Z,5.45
2022-12-01T02:13:38.882Z,5.45
2022-12-01T02:14:38.157Z,5.42
2022-12-01T02:15:38.456Z,5.42
2022-12-01T02:16:38.856Z,5.42
2022-12-01T02:17:41.983Z,5.45
2022-12-01T02:18:39.416Z,5.42
2022-12-01T02:19:37.669Z,5.41
2022-12-01T02:20:37.946Z,5.42
2022-12-01T02:21:52.806Z,5.42
2022-12-01T02:22:39.601Z,5.40
2022-12-01T02:23:37.941Z,5.40
2022-12-01T02:24:38.085Z,5.40
2022-12-01T02:25:44.637Z,5.40
2022-12-01T02:26:37.677Z,5.40
2022-12-01T02:28:17.446Z,5.38
2022-12-01T02:28:38.230Z,5.40
2022-12-01T02:29:37.476Z,5.38
2022-12-01T02:30:44.475Z,5.38
2022-12-01T02:31:39.431Z,5.38
2022-12-01T02:32:38.685Z,5.40
2022-12-01T02:33:39.156Z,5.41
2022-12-01T02:34:38.206Z,5.41
2022-12-01T02:35:38.497Z,5.40
2022-12-01T02:36:38.789Z,5.40
2022-12-01T02:37:38.038Z,5.42
2022-12-01T02:39:28.276Z,5.37
2022-12-01T02:39:37.616Z,5.40
2022-12-01T02:40:37.926Z,5.38
2022-12-01T02:42:28.156Z,5.37
2022-12-01T02:42:37.516Z,5.40
2022-12-01T02:43:37.842Z,5.41
2022-12-01T02:44:52.757Z,5.41
2022-12-01T02:45:38.511Z,5.42
2022-12-01T02:46:37.807Z,5.40
2022-12-01T02:47:38.106Z,5.40
2022-12-01T02:48:39.461Z,5.38
2022-12-01T02:50:03.171Z,5.35
2022-12-01T02:50:37.416Z,5.40
2022-12-01T02:51:40.856Z,5.38
2022-12-01T02:52:37.047Z,5.40
2022-12-01T02:53:38.386Z,5.40
2022-12-01T02:54:38.702Z,5.37
2022-12-01T02:55:36.966Z,5.38
2022-12-01T02:57:03.256Z,5.35
2022-12-01T02:57:38.566Z,5.37
2022-12-01T02:58:37.811Z,5.37
2022-12-01T02:59:39.316Z,5.38
2022-12-01T03:01:08.930Z,5.37
2022-12-01T03:01:37.049Z,5.35
2022-12-01T03:02:36.990Z,5.38
2022-12-01T03:03:37.296Z,5.37
2022-12-01T03:04:37.635Z,5.38
2022-12-01T03:05:36.986Z,5.37
2022-12-01T03:06:37.806Z,5.37
2022-12-01T03:07:37.656Z,5.38
2022-12-01T03:08:36.906Z,5.33
2022-12-01T03:10:04.547Z,5.33
2022-12-01T03:10:37.829Z,5.37
2022-12-01T03:11:37.106Z,5.35
2022-12-01T03:12:37.402Z,5.37
2022-12-01T03:13:37.709Z,5.37
2022-12-01T03:14:36.989Z,5.35
2022-12-01T03:15:37.399Z,5.37
2022-12-01T03:16:37.676Z,5.37
2022-12-01T03:17:37.956Z,5.37
2022-12-01T03:18:37.227Z,5.40
2022-12-01T03:19:37.576Z,5.40
2022-12-01T03:20:37.865Z,5.40
2022-12-01T03:21:38.222Z,5.38
2022-12-01T03:22:38.505Z,5.38
2022-12-01T03:23:37.779Z,5.35
2022-12-01T03:24:37.071Z,5.35
2022-12-01T03:26:16.943Z,5.35
2022-12-01T03:26:36.680Z,5.37
2022-12-01T03:27:37.085Z,5.37
2022-12-01T03:28:43.581Z,5.35
2022-12-01T03:29:37.656Z,5.37
2022-12-01T03:30:37.977Z,5.37
2022-12-01T03:31:44.609Z,5.33
2022-12-01T03:32:43.893Z,5.35
2022-12-01T03:33:37.906Z,5.35
2022-12-01T03:34:38.247Z,5.35
2022-12-01T03:35:37.457Z,5.33
2022-12-01T03:36:38.900Z,5.37
2022-12-01T03:37:51.747Z,5.37
2022-12-01T03:38:37.419Z,5.37
2022-12-01T03:39:36.695Z,5.35
2022-12-01T03:40:38.027Z,5.35
2022-12-01T03:41:38.379Z,5.33
2022-12-01T03:42:36.539Z,5.35
2022-12-01T03:43:38.937Z,5.38
2022-12-01T03:44:38.206Z,5.38
2022-12-01T03:45:37.455Z,5.37
2022-12-01T03:46:37.809Z,5.37
2022-12-01T03:47:37.016Z,5.38
2022-12-01T03:48:38.346Z,5.38
2022-12-01T03:49:37.660Z,5.40
2022-12-01T03:50:37.922Z,5.38
2022-12-01T03:51:37.152Z,5.41
2022-12-01T03:52:37.467Z,5.41
2022-12-01T03:54:26.618Z,5.42
2022-12-01T03:54:36.991Z,5.44
2022-12-01T03:55:36.291Z,5.41
2022-12-01T03:56:37.621Z,5.45
2022-12-01T03:58:01.851Z,5.42
2022-12-01T03:58:36.145Z,5.47
2022-12-01T03:59:36.317Z,5.44
2022-12-01T04:00:36.651Z,5.44
2022-12-01T04:01:37.975Z,5.45
2022-12-01T04:02:36.332Z,5.48
2022-12-01T04:03:36.558Z,5.49
2022-12-01T04:04:37.803Z,5.52
2022-12-01T04:05:37.158Z,5.55
2022-12-01T04:06:36.446Z,5.58
2022-12-01T04:07:36.767Z,5.58
2022-12-01T04:08:37.046Z,5.56
2022-12-01T04:09:36.316Z,5.55
2022-12-01T04:10:37.719Z,5.52
2022-12-01T04:11:36.921Z,5.49
2022-12-01T04:12:37.126Z,5.49
2022-12-01T04:13:36.542Z,5.48
2022-12-01T04:14:36.786Z,5.48
2022-12-01T04:15:37.126Z,5.48
2022-12-01T04:16:36.493Z,5.47
2022-12-01T04:17:36.676Z,5.44
2022-12-01T04:18:35.948Z,5.42
2022-12-01T04:19:36.282Z,5.44
2022-12-01T04:20:37.525Z,5.45
2022-12-01T04:21:35.927Z,5.42
2022-12-01T04:22:36.610Z,5.42
2022-12-01T04:23:38.661Z,5.44
2022-12-01T04:24:35.921Z,5.42
2022-12-01T04:25:37.196Z,5.41
2022-12-01T04:26:36.575Z,5.41
2022-12-01T04:27:35.854Z,5.40
2022-12-01T04:28:36.176Z,5.41
2022-12-01T04:29:36.947Z,5.41
2022-12-01T04:30:36.191Z,5.44
2022-12-01T04:31:36.576Z,5.45
2022-12-01T04:32:36.762Z,5.42
2022-12-01T04:33:36.032Z,5.45
2022-12-01T04:34:36.340Z,5.44
2022-12-01T04:35:36.611Z,5.48
2022-12-01T04:36:36.885Z,5.42
2022-12-01T04:37:37.284Z,5.42
2022-12-01T04:38:36.507Z,5.42
2022-12-01T04:39:36.842Z,5.41
2022-12-01T04:40:36.101Z,5.45
2022-12-01T04:41:36.408Z,5.44
2022-12-01T04:42:36.714Z,5.47
2022-12-01T04:43:35.814Z,5.45
2022-12-01T04:44:36.092Z,5.47
2022-12-01T04:45:36.407Z,5.48
2022-12-01T04:46:37.675Z,5.44
2022-12-01T04:47:36.978Z,5.45
2022-12-01T04:48:36.214Z,5.45
2022-12-01T04:49:35.456Z,5.45
2022-12-01T04:50:35.742Z,5.45
2022-12-01T04:51:36.109Z,5.44
2022-12-01T04:52:36.342Z,5.44
2022-12-01T04:53:36.695Z,5.42
2022-12-01T04:54:35.926Z,5.42
2022-12-01T04:55:37.164Z,5.41
2022-12-01T04:56:36.526Z,5.41
2022-12-01T04:57:36.804Z,5.42
2022-12-01T04:58:36.031Z,5.41
2022-12-01T04:59:36.127Z,5.41
2022-12-01T05:00:35.415Z,5.42
2022-12-01T05:01:35.716Z,5.42
2022-12-01T05:02:37.090Z,5.42
2022-12-01T05:03:36.243Z,5.42
2022-12-01T05:04:35.511Z,5.42
2022-12-01T05:05:36.836Z,5.47
2022-12-01T05:06:36.097Z,5.49
2022-12-01T05:07:35.423Z,5.48
2022-12-01T05:08:36.811Z,5.49
2022-12-01T05:09:36.986Z,5.49
2022-12-01T05:10:35.223Z,5.44
2022-12-01T05:11:35.486Z,5.45
2022-12-01T05:12:36.807Z,5.44
2022-12-01T05:13:36.068Z,5.42
2022-12-01T05:14:36.352Z,5.40
2022-12-01T05:15:36.616Z,5.40
2022-12-01T05:16:35.965Z,5.38
2022-12-01T05:17:37.289Z,5.38
2022-12-01T05:18:37.471Z,5.37
2022-12-01T05:19:37.806Z,5.37
2022-12-01T05:20:37.246Z,5.38
2022-12-01T05:21:39.258Z,5.38
2022-12-01T05:23:04.201Z,5.38
2022-12-01T05:23:36.767Z,5.40
2022-12-01T05:24:35.045Z,5.40
2022-12-01T05:25:35.576Z,5.38
2022-12-01T05:26:35.606Z,5.38
2022-12-01T05:27:36.832Z,5.37
2022-12-01T05:28:36.176Z,5.37
2022-12-01T05:29:35.414Z,5.38
2022-12-01T05:30:35.701Z,5.37
2022-12-01T05:31:36.176Z,5.37
2022-12-01T05:32:35.267Z,5.38
2022-12-01T05:33:35.593Z,5.37
2022-12-01T05:34:35.897Z,5.37
2022-12-01T05:35:35.166Z,5.38
2022-12-01T05:36:35.567Z,5.38
2022-12-01T05:37:36.881Z,5.40
2022-12-01T05:38:35.048Z,5.38
2022-12-01T05:39:35.362Z,5.38
2022-12-01T05:40:36.638Z,5.45
2022-12-01T05:41:37.031Z,5.40
2022-12-01T05:42:35.221Z,5.38
2022-12-01T05:43:35.526Z,5.38
2022-12-01T05:44:42.183Z,5.37
2022-12-01T05:45:35.177Z,5.33
2022-12-01T05:46:38.576Z,5.35
2022-12-01T05:47:36.743Z,5.37
2022-12-01T05:48:34.947Z,5.33
2022-12-01T05:49:36.302Z,5.38
2022-12-01T05:50:35.571Z,5.40
2022-12-01T05:51:34.937Z,5.41
2022-12-01T05:52:38.302Z,5.40
2022-12-01T05:53:37.537Z,5.41
2022-12-01T05:54:34.711Z,5.41
2022-12-01T05:55:36.065Z,5.41
2022-12-01T05:56:35.894Z,5.42
2022-12-01T05:57:36.216Z,5.41
2022-12-01T05:58:35.566Z,5.44
2022-12-01T05:59:36.811Z,5.42
2022-12-01T06:00:35.045Z,5.45
2022-12-01T06:01:35.373Z,5.44
2022-12-01T06:02:34.612Z,5.44
2022-12-01T06:03:34.891Z,5.47
2022-12-01T06:04:35.413Z,5.44
2022-12-01T06:05:34.932Z,5.44
2022-12-01T06:06:35.243Z,5.48
2022-12-01T06:07:36.617Z,5.48
2022-12-01T06:08:36.911Z,5.49
2022-12-01T06:09:35.126Z,5.45
2022-12-01T06:10:37.511Z,5.42
2022-12-01T06:11:37.813Z,5.41
2022-12-01T06:12:34.978Z,5.42
2022-12-01T06:13:37.392Z,5.42
2022-12-01T06:14:35.736Z,5.41
2022-12-01T06:15:34.913Z,5.41
2022-12-01T06:16:38.283Z,5.40
2022-12-01T06:17:40.361Z,5.38
2022-12-01T06:18:37.935Z,5.38
2022-12-01T06:19:35.101Z,5.38
2022-12-01T06:20:37.771Z,5.37
2022-12-01T06:21:37.782Z,5.40
2022-12-01T06:22:34.942Z,5.42
2022-12-01T06:23:37.616Z,5.40
2022-12-01T06:24:37.692Z,5.44
2022-12-01T06:25:34.820Z,5.45
2022-12-01T06:26:37.523Z,5.47
2022-12-01T06:27:37.472Z,5.44
2022-12-01T06:28:34.633Z,5.42
2022-12-01T06:29:41.944Z,5.40
2022-12-01T06:30:35.232Z,5.38
2022-12-01T06:31:37.725Z,5.40
2022-12-01T06:32:35.885Z,5.44
2022-12-01T06:33:34.087Z,5.44
2022-12-01T06:34:35.432Z,5.44
2022-12-01T06:35:34.672Z,5.47
2022-12-01T06:36:34.945Z,5.51
2022-12-01T06:37:37.347Z,5.49
2022-12-01T06:38:34.484Z,5.55
2022-12-01T06:39:36.862Z,5.51
2022-12-01T06:40:36.106Z,5.51
2022-12-01T06:41:34.331Z,5.47
2022-12-01T06:42:34.667Z,5.44
2022-12-01T06:43:34.991Z,5.42
2022-12-01T06:44:34.202Z,5.45
2022-12-01T06:45:34.602Z,5.44
2022-12-01T06:46:34.940Z,5.44
2022-12-01T06:47:34.071Z,5.45
2022-12-01T06:48:34.404Z,5.47
2022-12-01T06:49:34.721Z,5.44
2022-12-01T06:50:33.951Z,5.42
2022-12-01T06:51:34.271Z,5.44
2022-12-01T06:52:34.594Z,5.45
2022-12-01T06:53:33.867Z,5.44
2022-12-01T06:54:34.182Z,5.45
2022-12-01T06:55:34.482Z,5.48
2022-12-01T06:56:34.793Z,5.48
2022-12-01T06:57:34.032Z,5.42
2022-12-01T06:58:35.271Z,5.42
2022-12-01T06:59:34.605Z,5.41
2022-12-01T07:00:34.911Z,5.41
2022-12-01T07:01:34.255Z,5.40
2022-12-01T07:02:34.458Z,5.37
2022-12-01T07:03:37.861Z,5.35
2022-12-01T07:04:34.042Z,5.33
2022-12-01T07:05:34.275Z,5.33
2022-12-01T07:06:34.611Z,5.32
2022-12-01T07:07:34.820Z,5.32
2022-12-01T07:08:34.143Z,5.35
2022-12-01T07:09:40.697Z,5.37
2022-12-01T07:10:34.787Z,5.42
2022-12-01T07:11:41.445Z,5.47
2022-12-01T07:12:34.357Z,5.48
2022-12-01T07:13:34.677Z,5.49
2022-12-01T07:14:33.946Z,5.49
2022-12-01T07:15:34.292Z,5.45
2022-12-01T07:16:35.655Z,5.45
2022-12-01T07:17:41.141Z,5.41
2022-12-01T07:18:34.113Z,5.41
2022-12-01T07:19:34.472Z,5.38
2022-12-01T07:20:33.726Z,5.37
2022-12-01T07:21:33.992Z,5.38
2022-12-01T07:22:35.286Z,5.38
2022-12-01T07:23:33.648Z,5.35
2022-12-01T07:24:48.498Z,5.37
2022-12-01T07:25:35.236Z,5.33
2022-12-01T07:26:33.447Z,5.33
2022-12-01T07:27:48.293Z,5.35
2022-12-01T07:28:34.049Z,5.33
2022-12-01T07:29:33.313Z,5.33
2022-12-01T07:30:33.694Z,5.33
2022-12-01T07:31:33.936Z,5.32
2022-12-01T07:32:34.238Z,5.29
2022-12-01T07:33:33.525Z,5.29
2022-12-01T07:34:48.652Z,5.27
2022-12-01T07:36:01.212Z,5.26
2022-12-01T07:36:33.454Z,5.27
2022-12-01T07:37:36.903Z,5.27
2022-12-01T07:38:35.047Z,5.27
2022-12-01T07:39:33.406Z,5.29
2022-12-01T07:41:13.685Z,5.29
2022-12-01T07:41:34.116Z,5.29
2022-12-01T07:42:33.367Z,5.29
2022-12-01T07:43:33.688Z,5.30
2022-12-01T07:44:34.023Z,5.29
2022-12-01T07:45:33.328Z,5.30
2022-12-01T07:46:34.794Z,5.29
2022-12-01T07:47:48.541Z,5.32
2022-12-01T07:48:48.895Z,5.33
2022-12-01T07:49:33.582Z,5.37
2022-12-01T07:51:24.461Z,5.35
2022-12-01T07:51:33.226Z,5.33
2022-12-01T07:52:34.701Z,5.33
2022-12-01T07:53:34.046Z,5.35
2022-12-01T07:54:35.428Z,5.38
2022-12-01T07:55:33.523Z,5.35
2022-12-01T07:57:06.116Z,5.40
2022-12-01T07:57:33.067Z,5.40
2022-12-01T07:58:33.457Z,5.38
2022-12-01T07:59:33.741Z,5.38
2022-12-01T08:01:01.231Z,5.38
2022-12-01T08:01:33.390Z,5.40
2022-12-01T08:02:34.772Z,5.38
2022-12-01T08:03:32.961Z,5.41
2022-12-01T08:05:06.656Z,5.40
2022-12-01T08:05:33.702Z,5.44
2022-12-01T08:06:33.881Z,5.44
2022-12-01T08:07:33.240Z,5.47
2022-12-01T08:08:33.766Z,5.49
2022-12-01T08:09:32.924Z,5.49
2022-12-01T08:10:33.207Z,5.48
2022-12-01T08:11:33.492Z,5.48
2022-12-01T08:12:32.777Z,5.45
2022-12-01T08:13:33.101Z,5.47
2022-12-01T08:14:33.447Z,5.41
2022-12-01T08:15:32.905Z,5.40
2022-12-01T08:16:33.552Z,5.37
2022-12-01T08:17:33.417Z,5.38
2022-12-01T08:18:35.801Z,5.37
2022-12-01T08:19:36.123Z,5.35
2022-12-01T08:20:33.336Z,5.38
2022-12-01T08:21:33.712Z,5.37
2022-12-01T08:22:32.956Z,5.38
2022-12-01T08:23:33.197Z,5.40
2022-12-01T08:24:33.572Z,5.41
2022-12-01T08:25:32.772Z,5.41
2022-12-01T08:26:34.022Z,5.40
2022-12-01T08:27:33.469Z,5.42
2022-12-01T08:28:32.738Z,5.44
2022-12-01T08:29:33.056Z,5.48
2022-12-01T08:30:33.367Z,5.55
2022-12-01T08:31:32.699Z,5.56
2022-12-01T08:32:32.951Z,5.60
2022-12-01T08:33:33.466Z,5.62
2022-12-01T08:34:32.536Z,5.60
2022-12-01T08:35:33.772Z,5.60
2022-12-01T08:36:33.132Z,5.60
2022-12-01T08:37:36.456Z,5.66
2022-12-01T08:38:33.757Z,5.67
2022-12-01T08:39:33.093Z,5.67
2022-12-01T08:40:33.462Z,5.67
2022-12-01T08:41:32.637Z,5.69
2022-12-01T08:42:32.962Z,5.66
2022-12-01T08:44:34.782Z,5.63
2022-12-01T08:45:32.886Z,5.60
2022-12-01T08:46:33.256Z,5.63
2022-12-01T08:47:32.337Z,5.60
2022-12-01T08:48:32.691Z,5.59
2022-12-01T08:49:33.067Z,5.58
2022-12-01T08:50:33.448Z,5.56
2022-12-01T08:51:32.496Z,5.56
2022-12-01T08:52:32.791Z,5.55
2022-12-01T08:53:33.284Z,5.56
2022-12-01T08:54:32.493Z,5.51
2022-12-01T08:55:33.035Z,5.51
2022-12-01T08:56:33.254Z,5.51
2022-12-01T08:57:32.339Z,5.52
2022-12-01T08:58:32.671Z,5.47
2022-12-01T08:59:33.823Z,5.47
2022-12-01T09:00:34.100Z,5.52
2022-12-01T09:01:32.419Z,5.52
2022-12-01T09:02:32.869Z,5.55
2022-12-01T09:03:33.128Z,5.55
2022-12-01T09:04:32.261Z,5.58
2022-12-01T09:05:32.671Z,5.59
2022-12-01T09:06:33.012Z,5.60
2022-12-01T09:07:32.186Z,5.60
2022-12-01T09:08:32.738Z,5.60
2022-12-01T09:09:32.753Z,5.58
2022-12-01T09:10:32.974Z,5.62
2022-12-01T09:11:33.283Z,5.62
2022-12-01T09:12:32.536Z,5.60
2022-12-01T09:13:32.851Z,5.63
2022-12-01T09:14:33.158Z,5.65
2022-12-01T09:15:32.538Z,5.69
2022-12-01T09:16:32.765Z,5.70
2022-12-01T09:17:31.947Z,5.73
2022-12-01T09:18:33.236Z,5.74
2022-12-01T09:19:32.657Z,5.77
2022-12-01T09:20:33.949Z,5.80
2022-12-01T09:21:32.193Z,5.80
2022-12-01T09:22:33.344Z,5.77
2022-12-01T09:23:33.633Z,5.78
2022-12-01T09:24:31.972Z,5.78
2022-12-01T09:25:32.738Z,5.78
2022-12-01T09:26:32.577Z,5.78
2022-12-01T09:27:33.827Z,5.81
2022-12-01T09:28:32.102Z,5.83
2022-12-01T09:29:32.452Z,5.84
2022-12-01T09:30:32.757Z,5.85
2022-12-01T09:31:32.913Z,5.84
2022-12-01T09:32:32.227Z,5.87
2022-12-01T09:33:32.555Z,5.84
2022-12-01T09:34:33.779Z,5.80
2022-12-01T09:35:32.180Z,5.78
2022-12-01T09:36:32.615Z,5.77
2022-12-01T09:37:33.682Z,5.75
2022-12-01T09:38:32.047Z,5.77
2022-12-01T09:39:33.322Z,5.80
2022-12-01T09:40:33.475Z,5.81
2022-12-01T09:41:31.771Z,5.83
2022-12-01T09:42:35.315Z,5.84
2022-12-01T09:43:32.352Z,5.84
2022-12-01T09:44:33.600Z,5.85
2022-12-01T09:45:31.831Z,5.85
2022-12-01T09:46:32.379Z,5.87
2022-12-01T09:47:32.586Z,5.90
2022-12-01T09:48:31.757Z,5.90
2022-12-01T09:49:34.145Z,5.98
2022-12-01T09:50:33.305Z,5.92
2022-12-01T09:51:32.541Z,5.90
2022-12-01T09:52:31.992Z,5.90
2022-12-01T09:53:32.436Z,5.90
2022-12-01T09:54:31.642Z,5.88
2022-12-01T09:55:33.896Z,5.90
2022-12-01T09:56:32.092Z,5.87
2022-12-01T09:57:33.342Z,5.92
2022-12-01T09:58:31.709Z,5.93
2022-12-01T09:59:32.036Z,5.90
2022-12-01T10:00:33.338Z,5.92
2022-12-01T10:01:31.688Z,5.93
2022-12-01T10:02:31.960Z,6.01
2022-12-01T10:03:32.166Z,5.98
2022-12-01T10:04:32.478Z,5.99
2022-12-01T10:05:31.796Z,5.99
2022-12-01T10:06:32.192Z,6.03
2022-12-01T10:07:32.322Z,6.02
2022-12-01T10:08:31.706Z,6.03
2022-12-01T10:09:32.036Z,6.03
2022-12-01T10:10:33.148Z,6.03
2022-12-01T10:11:32.546Z,6.06
2022-12-01T10:12:31.771Z,6.08
2022-12-01T10:13:32.096Z,6.08
2022-12-01T10:14:31.342Z,6.08
2022-12-01T10:15:31.577Z,6.06
2022-12-01T10:16:31.981Z,6.08
2022-12-01T10:17:31.156Z,6.06
2022-12-01T10:18:31.481Z,6.08
2022-12-01T10:19:32.356Z,6.05
2022-12-01T10:20:32.126Z,6.06
2022-12-01T10:21:31.255Z,6.06
2022-12-01T10:22:31.546Z,6.10
2022-12-01T10:23:31.826Z,6.10
2022-12-01T10:24:32.227Z,6.11
2022-12-01T10:25:31.401Z,6.11
2022-12-01T10:26:31.650Z,6.10
2022-12-01T10:27:31.926Z,6.11
2022-12-01T10:28:31.161Z,6.13
2022-12-01T10:29:31.481Z,6.06
2022-12-01T10:30:31.877Z,6.05
2022-12-01T10:31:32.133Z,6.06
2022-12-01T10:32:32.267Z,6.06
2022-12-01T10:33:32.506Z,6.05
2022-12-01T10:34:31.845Z,6.02
2022-12-01T10:35:31.086Z,6.01
2022-12-01T10:36:31.546Z,6.03
2022-12-01T10:37:31.723Z,6.03
2022-12-01T10:38:30.875Z,6.08
2022-12-01T10:39:31.198Z,6.13
2022-12-01T10:40:31.447Z,6.14
2022-12-01T10:41:31.726Z,6.17
2022-12-01T10:42:30.986Z,6.20
2022-12-01T10:43:34.417Z,6.20
2022-12-01T10:44:33.579Z,6.21
2022-12-01T10:45:31.900Z,6.25
2022-12-01T10:46:32.086Z,6.28
2022-12-01T10:47:31.520Z,6.30
2022-12-01T10:48:32.782Z,6.32
2022-12-01T10:49:34.056Z,6.30
2022-12-01T10:50:31.226Z,6.33
2022-12-01T10:51:32.521Z,6.36
2022-12-01T10:52:32.107Z,6.42
2022-12-01T10:53:39.422Z,6.42
2022-12-01T10:54:31.336Z,6.48
2022-12-01T10:55:31.849Z,6.48
2022-12-01T10:56:33.991Z,6.53
2022-12-01T10:57:31.149Z,6.54
2022-12-01T10:58:32.388Z,6.51
2022-12-01T10:59:31.778Z,6.50
2022-12-01T11:00:58.549Z,6.54
2022-12-01T11:01:34.467Z,6.50
2022-12-01T11:02:30.726Z,6.54
2022-12-01T11:03:34.130Z,6.58
2022-12-01T11:04:34.212Z,6.57
2022-12-01T11:05:32.383Z,6.61
2022-12-01T11:06:30.608Z,6.65
2022-12-01T11:07:31.981Z,6.68
2022-12-01T11:08:31.159Z,6.71
2022-12-01T11:09:32.514Z,6.71
2022-12-01T11:10:30.785Z,6.71
2022-12-01T11:11:30.997Z,6.73
2022-12-01T11:12:31.266Z,6.73
2022-12-01T11:13:31.568Z,6.75
2022-12-01T11:14:31.853Z,6.75
2022-12-01T11:15:31.130Z,6.73
2022-12-01T11:16:32.471Z,6.73
2022-12-01T11:17:33.727Z,6.75
2022-12-01T11:18:34.025Z,6.72
2022-12-01T11:19:32.202Z,6.68
2022-12-01T11:20:34.240Z,6.65
2022-12-01T11:21:30.657Z,6.63
2022-12-01T11:22:34.022Z,6.63
2022-12-01T11:23:33.226Z,6.60
2022-12-01T11:24:31.427Z,6.60
2022-12-01T11:25:33.829Z,6.64
2022-12-01T11:26:30.994Z,6.69
2022-12-01T11:27:33.316Z,6.72
2022-12-01T11:28:32.523Z,6.75
2022-12-01T11:29:31.714Z,6.75
2022-12-01T11:30:30.956Z,6.78
2022-12-01T11:31:30.218Z,6.79
2022-12-01T11:32:30.520Z,6.82
2022-12-01T11:33:30.683Z,6.83
2022-12-01T11:34:31.952Z,6.89
2022-12-01T11:35:31.242Z,6.89
2022-12-01T11:36:31.569Z,6.86
2022-12-01T11:37:31.997Z,6.83
2022-12-01T11:38:34.006Z,6.83
2022-12-01T11:39:30.182Z,6.83
2022-12-01T11:40:30.447Z,6.86
2022-12-01T11:41:30.718Z,6.87
2022-12-01T11:42:30.981Z,6.89
2022-12-01T11:43:30.518Z,6.87
2022-12-01T11:45:39.076Z,6.86
2022-12-01T11:46:29.987Z,6.86
2022-12-01T11:47:31.332Z,6.87
2022-12-01T11:48:31.691Z,6.91
2022-12-01T11:49:30.896Z,6.91
2022-12-01T11:50:31.142Z,6.91
2022-12-01T11:51:31.436Z,6.93
2022-12-01T11:52:30.718Z,6.91
2022-12-01T11:53:31.116Z,6.91
2022-12-01T11:54:31.332Z,6.93
2022-12-01T11:55:36.799Z,6.93
2022-12-01T11:56:29.799Z,6.89
2022-12-01T11:57:34.887Z,6.93
2022-12-01T11:58:33.569Z,6.96
2022-12-01T11:59:31.636Z,6.97
2022-12-01T12:00:33.109Z,7.00
2022-12-01T12:01:31.267Z,7.00
2022-12-01T12:02:30.636Z,6.99
2022-12-01T12:03:30.910Z,6.99
2022-12-01T12:04:32.121Z,6.96
2022-12-01T12:05:31.552Z,6.93
2022-12-01T12:06:46.029Z,6.91
2022-12-01T12:07:30.999Z,6.83
2022-12-01T12:08:33.327Z,6.86
2022-12-01T12:09:32.499Z,6.86
2022-12-01T12:10:33.770Z,6.83
2022-12-01T12:11:32.058Z,6.83
2022-12-01T12:12:32.277Z,6.82
2022-12-01T12:13:30.616Z,6.82
2022-12-01T12:14:30.567Z,6.81
2022-12-01T12:15:33.217Z,6.79
2022-12-01T12:16:33.655Z,6.82
2022-12-01T12:17:29.637Z,6.82
2022-12-01T12:18:44.372Z,6.86
2022-12-01T12:19:33.881Z,6.82
2022-12-01T12:20:31.391Z,6.82
2022-12-01T12:21:29.596Z,6.83
2022-12-01T12:22:30.097Z,6.89
2022-12-01T12:23:44.727Z,6.87
2022-12-01T12:24:30.471Z,6.90
2022-12-01T12:25:29.691Z,6.86
2022-12-01T12:26:31.978Z,6.83
2022-12-01T12:28:00.517Z,6.87
2022-12-01T12:28:29.545Z,6.93
2022-12-01T12:29:29.807Z,6.86
2022-12-01T12:30:30.296Z,6.83
2022-12-01T12:31:29.397Z,6.86
2022-12-01T12:32:30.602Z,6.89
2022-12-01T12:33:30.046Z,6.86
2022-12-01T12:34:30.261Z,6.82
2022-12-01T12:35:30.532Z,6.79
2022-12-01T12:36:29.762Z,6.78
2022-12-01T12:37:30.057Z,6.78
2022-12-01T12:38:30.381Z,6.79
2022-12-01T12:39:29.584Z,6.81
2022-12-01T12:40:30.867Z,6.82
2022-12-01T12:41:30.122Z,6.83
2022-12-01T12:42:30.402Z,6.86
2022-12-01T12:43:29.646Z,6.87
2022-12-01T12:44:36.628Z,6.89
2022-12-01T12:45:30.146Z,6.90
2022-12-01T12:46:29.510Z,6.91
2022-12-01T12:47:29.786Z,6.94
2022-12-01T12:48:32.723Z,6.94
2022-12-01T12:49:32.540Z,6.96
2022-12-01T12:50:30.492Z,6.91
2022-12-01T12:51:30.910Z,6.91
2022-12-01T12:52:33.055Z,6.91
2022-12-01T12:53:30.547Z,6.93
2022-12-01T12:54:55.668Z,6.87
2022-12-01T12:55:29.923Z,6.91
2022-12-01T12:56:29.152Z,6.90
2022-12-01T12:57:36.732Z,6.94
2022-12-01T12:58:32.825Z,6.94
2022-12-01T12:59:32.076Z,6.91
2022-12-01T13:00:36.577Z,6.91
2022-12-01T13:01:36.818Z,6.87
2022-12-01T13:02:32.919Z,6.93
2022-12-01T13:03:37.142Z,6.90
2022-12-01T13:04:37.552Z,6.87
2022-12-01T13:05:30.652Z,6.78
2022-12-01T13:06:29.986Z,6.79
2022-12-01T13:07:55.198Z,6.79
2022-12-01T13:08:29.443Z,6.79
2022-12-01T13:09:30.341Z,6.75
2022-12-01T13:10:29.932Z,6.73
2022-12-01T13:11:43.862Z,6.72
2022-12-01T13:12:29.536Z,6.73
2022-12-01T13:13:44.381Z,6.71
2022-12-01T13:14:29.066Z,6.72
2022-12-01T13:15:32.487Z,6.72
2022-12-01T13:16:30.692Z,6.76
2022-12-01T13:17:28.952Z,6.78
2022-12-01T13:18:55.182Z,6.76
2022-12-01T13:19:29.492Z,6.76
2022-12-01T13:20:31.031Z,6.76